Neoga, Illinois
Current Conditions -  °F | °C
As of 6:53 AM on Saturday 20 Dec 2014 (Local Time) from KMTO Reporting Station
Overcast Overcast  
Wind Chill: 23°   Ceiling: 4700
Heat Index: 29°   Visibility: 10mi
Dew Point: 25°   Wind: 6mph
Humidity: 85%   Direction: 140°SE
Pressure: 30.27"   Gusts: NA
Location:  39.32°N, 88.45°W
Report Text: KMTO 201253Z AUTO 14005KT 10SM OVC047 M02/M04 A3027 RMK AO2 SLP257 T10171039
Loading
Personal Weather Stations






























Interactive Weather Map New forecast layout! Learn more

10-Day Weather Forecast

Advertisements
Track Severe Weather on mobile